Time;durP1;ratioP1;P1;durP2;ratioP2;P2;SDS_P1;SDS_P2;PMS_P1;PMS_P2;Temp;Humidity;BMP_temperature;BMP_pressure;BME280_temperature;BME280_humidity;BME280_pressure;Samples;Min_cycle;Max_cycle;Signal;HPM_P1;HPM_P2
2022/04/23 00:00:22;;;;;;;;;;;;;;;6.73;100.00;97328.77;1659167;86;22005;-86
2022/04/23 00:02:50;;;;;;;;;;;;;;;6.73;100.00;97328.77;1659979;86;22754;-86
2022/04/23 00:05:16;;;;;;;;;;;;;;;6.73;100.00;97324.88;1660770;86;24638;-86
2022/04/23 00:07:42;;;;;;;;;;;;;;;6.72;100.00;97324.98;1659410;86;20245;-86
2022/04/23 00:10:14;;;;;;;;;;;;;;;6.73;100.00;97319.67;1659796;86;20776;-86
2022/04/23 00:12:42;;;;;;;;;;;;;;;6.76;100.00;97323.84;1662414;85;22296;-86
2022/04/23 00:15:09;;;;;;;;;;;;;;;6.75;100.00;97326.54;1660820;86;25988;-86
2022/04/23 00:17:35;;;;;;;;;;;;;;;6.75;100.00;97323.94;1660711;86;24494;-87
2022/04/23 00:20:01;;;;;;;;;;;;;;;6.75;100.00;97323.47;1661566;86;20437;-86
2022/04/23 00:22:27;;;;;;;;;;;;;;;6.73;100.00;97328.77;1661677;86;24732;-86
2022/04/23 00:25:02;;;;;;;;;;;;;;;6.72;100.00;97323.67;1661213;85;21815;-86
2022/04/23 00:27:28;;;;;;;;;;;;;;;6.75;100.00;97320.04;1659416;86;26050;-87
2022/04/23 00:29:54;;;;;;;;;;;;;;;6.74;100.00;97321.80;1660712;86;24438;-87
2022/04/23 00:32:20;;;;;;;;;;;;;;;6.74;100.00;97324.41;1659471;85;20230;-86
2022/04/23 00:34:46;;;;;;;;;;;;;;;6.73;100.00;97321.44;1661483;86;20293;-87
2022/04/23 00:37:13;;;;;;;;;;;;;;;6.75;100.00;97321.34;1660784;86;22192;-87
2022/04/23 00:39:43;;;;;;;;;;;;;;;6.72;100.00;97319.30;1660842;86;26112;-87
2022/04/23 00:42:09;;;;;;;;;;;;;;;6.73;100.00;97321.44;1660935;85;24570;-87
2022/04/23 00:44:36;;;;;;;;;;;;;;;6.69;100.00;97320.01;1658716;85;20184;-86
2022/04/23 00:47:04;;;;;;;;;;;;;;;6.68;100.00;97311.84;1631195;87;20278;-87
2022/04/23 00:49:30;;;;;;;;;;;;;;;6.65;100.00;97308.18;1649132;87;22071;-88
2022/04/23 00:51:58;;;;;;;;;;;;;;;6.66;100.00;97312.41;1650725;85;25959;-87
2022/04/23 00:54:24;;;;;;;;;;;;;;;6.66;100.00;97313.25;1651526;86;24474;-87
2022/04/23 00:56:50;;;;;;;;;;;;;;;6.66;100.00;97310.64;1649836;86;20863;-86
2022/04/23 00:59:16;;;;;;;;;;;;;;;6.66;100.00;97305.91;1650649;87;24782;-86
2022/04/23 01:01:42;;;;;;;;;;;;;;;6.64;100.00;97300.02;1649887;87;20245;-86
2022/04/23 01:04:10;;;;;;;;;;;;;;;6.63;100.00;97303.55;1649978;86;26056;-86
2022/04/23 01:06:39;;;;;;;;;;;;;;;6.59;100.00;97307.31;1649725;87;24439;-86
2022/04/23 01:09:06;;;;;;;;;;;;;;;6.57;100.00;97311.31;1649605;87;20217;-86
2022/04/23 01:11:32;;;;;;;;;;;;;;;6.56;100.00;97302.32;1649433;87;24824;-86
2022/04/23 01:13:59;;;;;;;;;;;;;;;6.58;100.00;97308.25;1648553;85;21962;-86
2022/04/23 01:16:25;;;;;;;;;;;;;;;6.55;100.00;97300.66;1653166;85;26134;-87
2022/04/23 01:18:51;;;;;;;;;;;;;;;6.53;100.00;97302.09;1648860;87;24420;-86
2022/04/23 01:21:17;;;;;;;;;;;;;;;6.53;100.00;97303.86;1650606;86;20923;-86
2022/04/23 01:23:45;;;;;;;;;;;;;;;6.52;100.00;97307.39;1650971;85;24816;-86
2022/04/23 01:26:14;;;;;;;;;;;;;;;6.51;100.00;97303.95;1647859;86;21958;-86
2022/04/23 01:28:40;;;;;;;;;;;;;;;6.50;100.00;97311.85;1649839;87;26068;-86
2022/04/23 01:31:07;;;;;;;;;;;;;;;6.48;100.00;97305.48;1649350;87;24504;-86
2022/04/23 01:33:33;;;;;;;;;;;;;;;6.49;100.00;97308.42;1651140;85;20221;-86
2022/04/23 01:35:59;;;;;;;;;;;;;;;6.49;100.00;97310.22;1650228;86;24824;-86
2022/04/23 01:38:25;;;;;;;;;;;;;;;6.45;100.00;97306.98;1649761;87;20241;-86
2022/04/23 01:40:52;;;;;;;;;;;;;;;6.45;100.00;97304.86;1649641;87;25978;-86
2022/04/23 01:43:18;;;;;;;;;;;;;;;6.43;100.00;97307.59;1649574;85;24412;-86
2022/04/23 01:45:46;;;;;;;;;;;;;;;6.42;100.00;97315.02;1649407;85;20230;-86
2022/04/23 01:48:15;;;;;;;;;;;;;;;6.40;100.00;97312.15;1649702;87;24805;-86
2022/04/23 01:50:41;;;;;;;;;;;;;;;6.39;100.00;97309.19;1650589;86;20273;-87
2022/04/23 01:53:07;;;;;;;;;;;;;;;6.40;100.00;97308.25;1651549;86;25952;-87
2022/04/23 01:55:33;;;;;;;;;;;;;;;6.40;100.00;97312.98;1649737;85;24489;-87
2022/04/23 01:57:59;;;;;;;;;;;;;;;6.38;100.00;97308.38;1649505;87;20591;-86
2022/04/23 02:00:26;;;;;;;;;;;;;;;6.37;100.00;97311.08;1650247;87;24847;-86
2022/04/23 02:02:54;;;;;;;;;;;;;;;6.37;100.00;97315.81;1650141;86;22725;-86
2022/04/23 02:05:22;;;;;;;;;;;;;;;6.38;100.00;97320.55;1651624;86;25968;-86
2022/04/23 02:07:48;;;;;;;;;;;;;;;6.38;100.00;97321.38;1650360;86;24511;-86
2022/04/23 02:10:15;;;;;;;;;;;;;;;6.35;100.00;97322.88;1649193;87;20301;-86
2022/04/23 02:12:43;;;;;;;;;;;;;;;6.36;100.00;97321.11;1650790;87;24856;-86
2022/04/23 02:15:10;;;;;;;;;;;;;;;6.35;100.00;97321.58;1651389;85;22017;-86
2022/04/23 02:17:41;;;;;;;;;;;;;;;6.36;100.00;97320.64;1647825;85;25972;-86
2022/04/23 02:20:05;;;;;;;;;;;;;;;6.34;100.00;97319.91;1649749;85;24599;-86
2022/04/23 02:22:32;;;;;;;;;;;;;;;6.34;100.00;97320.38;1650354;87;20166;-86
2022/04/23 02:24:58;;;;;;;;;;;;;;;6.34;100.00;97323.81;1651779;85;25079;-86
2022/04/23 02:27:24;;;;;;;;;;;;;;;6.32;100.00;97330.06;1651331;87;22058;-86
2022/04/23 02:29:51;;;;;;;;;;;;;;;6.30;100.00;97324.50;1649622;87;26198;-86
2022/04/23 02:32:18;;;;;;;;;;;;;;;6.31;100.00;97334.43;1648962;86;24430;-86
2022/04/23 02:34:44;;;;;;;;;;;;;;;6.30;100.00;97335.36;1651329;85;20219;-86
2022/04/23 02:37:11;;;;;;;;;;;;;;;6.28;100.00;97346.32;1651223;86;24899;-85
2022/04/23 02:39:38;;;;;;;;;;;;;;;6.28;100.00;97347.62;1650358;87;22007;-85
2022/04/23 02:42:13;;;;;;;;;;;;;;;6.27;100.00;97349.88;1649674;85;27054;-86
2022/04/23 02:44:39;;;;;;;;;;;;;;;6.26;100.00;97351.64;1650674;86;24377;-86
2022/04/23 02:47:05;;;;;;;;;;;;;;;6.24;100.00;97348.31;1666075;85;20226;-86
2022/04/23 02:49:31;;;;;;;;;;;;;;;6.22;100.00;97347.58;1666563;86;24761;-86
2022/04/23 02:51:57;;;;;;;;;;;;;;;6.23;100.00;97344.05;1666118;86;22053;-86
2022/04/23 02:54:23;;;;;;;;;;;;;;;6.20;100.00;97354.67;1668188;85;21191;-86
2022/04/23 02:56:50;;;;;;;;;;;;;;;6.18;100.00;97354.39;1667007;85;24494;-86
2022/04/23 02:59:16;;;;;;;;;;;;;;;6.16;100.00;97355.83;1666550;84;20496;-86
2022/04/23 03:01:42;;;;;;;;;;;;;;;6.14;100.00;97352.49;1666911;84;20232;-86
2022/04/23 03:04:10;;;;;;;;;;;;;;;6.15;100.00;97352.86;1668388;86;20768;-85
2022/04/23 03:06:36;;;;;;;;;;;;;;;6.13;100.00;97349.52;1666033;84;26145;-86
2022/04/23 03:09:05;;;;;;;;;;;;;;;6.13;100.00;97347.39;1666446;86;24459;-86
2022/04/23 03:11:32;;;;;;;;;;;;;;;6.12;100.00;97350.92;1665457;86;20226;-86
2022/04/23 03:14:03;;;;;;;;;;;;;;;6.11;100.00;97355.78;1666735;86;24998;-86
2022/04/23 03:16:29;;;;;;;;;;;;;;;6.09;100.00;97357.64;1664324;85;22184;-85
2022/04/23 03:18:57;;;;;;;;;;;;;;;6.06;100.00;97357.37;1666984;86;25553;-86
2022/04/23 03:21:23;;;;;;;;;;;;;;;6.03;100.00;97362.79;1665863;86;24467;-86
2022/04/23 03:23:52;;;;;;;;;;;;;;;6.02;100.00;97363.72;1665257;84;20257;-87
2022/04/23 03:26:19;;;;;;;;;;;;;;;6.01;100.00;97370.30;1667893;84;24837;-86
2022/04/23 03:28:45;;;;;;;;;;;;;;;6.00;100.00;97373.37;1667039;86;21950;-86
2022/04/23 03:31:11;;;;;;;;;;;;;;;6.02;100.00;97371.51;1668639;84;20992;-87
2022/04/23 03:33:37;;;;;;;;;;;;;;;6.01;100.00;97371.61;1666428;86;20379;-87
2022/04/23 03:36:03;;;;;;;;;;;;;;;6.01;100.00;97375.03;1667779;84;20273;-87
2022/04/23 03:38:31;;;;;;;;;;;;;;;6.00;100.00;97377.27;1667056;86;24889;-86
2022/04/23 03:40:59;;;;;;;;;;;;;;;5.99;100.00;97379.52;1665374;86;22174;-87
2022/04/23 03:43:25;;;;;;;;;;;;;;;5.99;100.00;97389.08;1667204;84;26725;-87
2022/04/23 03:45:52;;;;;;;;;;;;;;;5.99;100.00;97393.80;1658810;84;24490;-85
2022/04/23 03:48:24;;;;;;;;;;;;;;;5.98;100.00;97393.44;1638380;87;20175;-86
2022/04/23 03:50:50;;;;;;;;;;;;;;;5.99;100.00;97396.41;1637433;87;24969;-86
2022/04/23 03:53:16;;;;;;;;;;;;;;;5.99;100.00;97402.06;1638331;86;21964;-86
2022/04/23 03:55:42;;;;;;;;;;;;;;;5.98;100.00;97406.42;1639097;85;21046;-85
2022/04/23 03:58:08;;;;;;;;;;;;;;;5.95;100.00;97397.52;1638345;87;20939;-86
2022/04/23 04:00:34;;;;;;;;;;;;;;;5.95;100.00;97405.31;1638339;86;20353;-86
2022/04/23 04:03:00;;;;;;;;;;;;;;;5.97;100.00;97403.92;1638250;87;24791;-86
2022/04/23 04:05:28;;;;;;;;;;;;;;;5.96;100.00;97406.14;1638575;86;21926;-87
2022/04/23 04:07:54;;;;;;;;;;;;;;;5.96;100.00;97408.74;1638276;87;26215;-87
2022/04/23 04:10:22;;;;;;;;;;;;;;;5.92;100.00;97405.53;1638270;87;24475;-87
2022/04/23 04:12:49;;;;;;;;;;;;;;;5.92;100.00;97412.02;1637013;85;21038;-86
2022/04/23 04:15:16;;;;;;;;;;;;;;;5.88;100.00;97407.98;1638407;86;24774;-86
2022/04/23 04:17:43;;;;;;;;;;;;;;;5.89;100.00;97416.14;1638417;87;22383;-86
2022/04/23 04:20:16;;;;;;;;;;;;;;;5.88;100.00;97409.28;1638278;87;25662;-86
2022/04/23 04:22:45;;;;;;;;;;;;;;;5.87;100.00;97412.80;1640676;85;24412;-86
2022/04/23 04:25:13;;;;;;;;;;;;;;;5.85;100.00;97415.92;1641649;85;20235;-86
2022/04/23 04:27:39;;;;;;;;;;;;;;;5.88;100.00;97422.27;1638292;86;24777;-86
2022/04/23 04:30:07;;;;;;;;;;;;;;;5.87;100.00;97416.70;1638201;86;21980;-85
2022/04/23 04:32:33;;;;;;;;;;;;;;;5.87;100.00;97423.19;1640052;85;26111;-86
2022/04/23 04:34:59;;;;;;;;;;;;;;;5.83;100.00;97413.45;1638338;85;24475;-85
2022/04/23 04:37:27;;;;;;;;;;;;;;;5.87;100.00;97422.73;1638228;86;20512;-86
2022/04/23 04:39:53;;;;;;;;;;;;;;;5.88;100.00;97423.09;1638265;86;24742;-86
2022/04/23 04:42:22;;;;;;;;;;;;;;;5.90;100.00;97425.56;1638303;86;22132;-87
2022/04/23 04:44:49;;;;;;;;;;;;;;;5.91;100.00;97421.20;1638381;85;26951;-86
2022/04/23 04:47:16;;;;;;;;;;;;;;;5.93;100.00;97421.48;1660859;84;24601;-86
2022/04/23 04:49:45;;;;;;;;;;;;;;;5.99;100.00;97426.73;1668746;86;20248;-87
2022/04/23 04:52:11;;;;;;;;;;;;;;;6.01;100.00;97424.84;1641094;86;24836;-87
2022/04/23 04:54:37;;;;;;;;;;;;;;;6.01;100.00;97428.27;1669414;86;20807;-87
2022/04/23 04:57:04;;;;;;;;;;;;;;;6.01;100.00;97435.23;1670183;84;26153;-87
2022/04/23 04:59:34;;;;;;;;;;;;;;;6.04;100.00;97435.88;1668362;86;25156;-87
2022/04/23 05:02:00;;;;;;;;;;;;;;;6.05;100.00;97433.65;1667274;86;21276;-86
2022/04/23 05:04:28;;;;;;;;;;;;;;;6.12;100.00;97437.47;1669993;84;20748;-87
2022/04/23 05:06:54;;;;;;;;;;;;;;;6.22;100.00;97438.97;1669344;84;22048;-87
2022/04/23 05:09:20;;;;;;;;;;;;;;;6.34;100.00;97434.70;1668310;84;25998;-87
2022/04/23 05:11:47;;;;;;;;;;;;;;;6.39;100.00;97427.42;1670216;84;20270;-86
2022/04/23 05:14:13;;;;;;;;;;;;;;;6.45;100.00;97424.40;1668847;86;20244;-87
2022/04/23 05:16:39;;;;;;;;;;;;;;;6.53;100.00;97423.41;1669934;86;20748;-87
2022/04/23 05:19:05;;;;;;;;;;;;;;;6.60;100.00;97422.06;1669266;86;20256;-87
2022/04/23 05:21:31;;;;;;;;;;;;;;;6.66;100.00;97430.23;1669405;86;25980;-86
2022/04/23 05:23:57;;;;;;;;;;;;;;;6.68;100.00;97426.23;1667959;86;24489;-87
2022/04/23 05:26:23;;;;;;;;;;;;;;;6.77;100.00;97426.88;1669383;86;20496;-87
2022/04/23 05:28:49;;;;;;;;;;;;;;;6.84;100.00;97433.31;1668864;86;24735;-86
2022/04/23 05:31:15;;;;;;;;;;;;;;;6.95;100.00;97441.66;1669443;86;21928;-86
2022/04/23 05:33:41;;;;;;;;;;;;;;;6.97;100.00;97441.92;1669395;84;20993;-86
2022/04/23 05:36:08;;;;;;;;;;;;;;;6.93;100.00;97437.02;1669216;86;24433;-86
2022/04/23 05:38:37;;;;;;;;;;;;;;;6.93;100.00;97436.55;1669542;85;20645;-85
2022/04/23 05:41:06;;;;;;;;;;;;;;;6.96;100.00;97438.95;1666833;86;24874;-86
2022/04/23 05:43:32;;;;;;;;;;;;;;;6.98;100.00;97451.36;1671889;84;22131;-85
2022/04/23 05:46:00;;;;;;;;;;;;;;;7.00;100.00;97444.29;1669018;86;26029;-85
2022/04/23 05:48:26;;;;;;;;;;;;;;;7.05;100.00;97446.09;1666910;86;24598;-85
2022/04/23 05:50:54;;;;;;;;;;;;;;;7.09;100.00;97451.42;1666113;86;20495;-85
2022/04/23 05:53:20;;;;;;;;;;;;;;;7.08;100.00;97451.55;1666140;84;24934;-86
2022/04/23 05:55:46;;;;;;;;;;;;;;;7.09;100.00;97448.02;1666138;86;22091;-86
2022/04/23 05:58:12;;;;;;;;;;;;;;;7.13;100.00;97449.45;1666695;86;26050;-85
2022/04/23 06:00:38;;;;;;;;;;;;;;;7.19;100.00;97448.19;1667875;84;24439;-86
2022/04/23 06:03:04;;;;;;;;;;;;;;;7.26;100.00;97451.52;1666584;84;20573;-86
2022/04/23 06:05:30;;;;;;;;;;;;;;;7.31;100.00;97454.62;1668602;84;24845;-86
2022/04/23 06:07:56;;;;;;;;;;;;;;;7.34;100.00;97457.48;1667364;84;20320;-86
2022/04/23 06:10:22;;;;;;;;;;;;;;;7.35;100.00;97456.08;1665968;86;20980;-86
2022/04/23 06:12:48;;;;;;;;;;;;;;;7.38;100.00;97453.70;1666400;84;24403;-86
2022/04/23 06:15:14;;;;;;;;;;;;;;;7.42;100.00;97459.88;1665602;84;20268;-86
2022/04/23 06:17:40;;;;;;;;;;;;;;;7.45;100.00;97457.06;1666148;86;20225;-86
2022/04/23 06:20:07;;;;;;;;;;;;;;;7.50;100.00;97463.23;1666745;86;22120;-87
2022/04/23 06:22:33;;;;;;;;;;;;;;;7.53;100.00;97459.92;1667002;86;26015;-86
2022/04/23 06:24:59;;;;;;;;;;;;;;;7.58;100.00;97463.98;1666308;86;20805;-86
2022/04/23 06:27:25;;;;;;;;;;;;;;;7.58;100.00;97463.98;1666742;86;20603;-87
2022/04/23 06:29:51;;;;;;;;;;;;;;;7.55;100.00;97465.03;1663294;86;20291;-87
2022/04/23 06:32:17;;;;;;;;;;;;;;;7.59;100.00;97461.25;1667956;85;22045;-87
2022/04/23 06:34:43;;;;;;;;;;;;;;;7.66;100.00;97466.38;1665787;86;26004;-87
2022/04/23 06:37:09;;;;;;;;;;;;;;;7.73;100.00;97462.86;1665848;86;24358;-86
2022/04/23 06:39:35;;;;;;;;;;;;;;;7.84;100.00;97468.10;1666668;84;20859;-86
2022/04/23 06:42:01;;;;;;;;;;;;;;;7.89;100.00;97467.28;1665709;86;24863;-86
2022/04/23 06:44:27;;;;;;;;;;;;;;;7.93;100.00;97466.94;1666647;86;20979;-86
2022/04/23 06:46:53;;;;;;;;;;;;;;;7.99;100.00;97466.95;1661713;84;21189;-86
2022/04/23 06:49:19;;;;;;;;;;;;;;;8.06;100.00;97471.23;1650853;87;20245;-86
2022/04/23 06:51:46;;;;;;;;;;;;;;;8.07;100.00;97470.30;1651292;85;20296;-86
2022/04/23 06:54:14;;;;;;;;;;;;;;;8.14;100.00;97468.40;1650549;86;25467;-87
2022/04/23 06:56:44;;;;;;;;;;;;;;;8.17;100.00;97465.58;1649136;87;22029;-87
2022/04/23 06:59:08;;;;;;;;;;;;;;;8.17;100.00;97466.05;1650341;85;26742;-86
2022/04/23 07:01:34;;;;;;;;;;;;;;;8.19;100.00;97461.06;1649661;86;20843;-87
2022/04/23 07:04:00;;;;;;;;;;;;;;;8.24;100.00;97464.62;1649448;86;20242;-86
2022/04/23 07:06:26;;;;;;;;;;;;;;;8.18;100.00;97466.41;1650164;86;20775;-85
2022/04/23 07:08:52;;;;;;;;;;;;;;;8.16;100.00;97473.03;1649861;85;20823;-86
2022/04/23 07:11:18;;;;;;;;;;;;;;;8.13;100.00;97468.54;1650288;87;25948;-87
2022/04/23 07:13:44;;;;;;;;;;;;;;;8.11;100.00;97461.30;1649473;85;24468;-86
2022/04/23 07:16:11;;;;;;;;;;;;;;;8.11;100.00;97465.20;1652446;85;20310;-87
2022/04/23 07:18:41;;;;;;;;;;;;;;;8.17;100.00;97460.84;1651198;85;24452;-88
2022/04/23 07:21:07;;;;;;;;;;;;;;;8.20;100.00;97454.08;1651388;85;22116;-87
2022/04/23 07:26:19;;;;;;;;;;;;;;;8.36;100.00;97459.81;1649767;85;24597;-87
2022/04/23 07:28:45;;;;;;;;;;;;;;;8.42;100.00;97464.56;1652015;85;20242;-87
2022/04/23 07:31:11;;;;;;;;;;;;;;;8.47;100.00;97457.22;1649570;87;24797;-86
2022/04/23 07:39:06;;;;;;;;;;;;;;;8.67;100.00;97448.67;1649777;87;24690;-86
2022/04/23 07:41:34;;;;;;;;;;;;;;;8.74;100.00;97449.86;1650898;85;20804;-86
2022/04/23 07:44:00;;;;;;;;;;;;;;;8.78;100.00;97452.58;1649929;87;24930;-86
2022/04/23 07:46:26;;;;;;;;;;;;;;;8.86;100.00;97458.98;1652065;85;20309;-85
2022/04/23 07:49:01;;;;;;;;;;;;;;;8.95;100.00;97455.17;1670195;84;21893;-87
2022/04/23 07:51:27;;;;;;;;;;;;;;;9.08;100.00;97453.73;1668238;84;24645;-87
2022/04/23 07:53:54;;;;;;;;;;;;;;;9.07;100.00;97458.13;1669726;86;20488;-86
2022/04/23 07:56:21;;;;;;;;;;;;;;;9.05;100.00;97452.69;1671297;84;24744;-86
2022/04/23 07:58:46;;;;;;;;;;;;;;;9.08;100.00;97448.04;1639819;87;22185;-86
2022/04/23 08:01:13;;;;;;;;;;;;;;;9.15;100.00;97456.22;1668763;86;25960;-86
2022/04/23 08:03:39;;;;;;;;;;;;;;;9.19;100.00;97455.84;1668316;86;24511;-86
2022/04/23 08:06:04;;;;;;;;;;;;;;;9.31;100.00;97450.59;1668990;86;20791;-87
2022/04/23 08:08:31;;;;;;;;;;;;;;;9.34;100.00;97452.95;1668941;86;24726;-86
2022/04/23 08:10:57;;;;;;;;;;;;;;;9.38;100.00;97449.16;1669339;84;22024;-86
2022/04/23 08:13:24;;;;;;;;;;;;;;;9.46;100.00;97446.74;1667997;86;26148;-87
2022/04/23 08:15:56;;;;;;;;;;;;;;;9.59;100.00;97457.39;1669293;84;24416;-87
2022/04/23 08:18:27;;;;;;;;;;;;;;;9.59;100.00;97460.00;1668627;86;20185;-86
2022/04/23 08:20:53;;;;;;;;;;;;;;;9.59;100.00;97450.86;1666762;86;24774;-86
2022/04/23 08:23:22;;;;;;;;;;;;;;;9.67;100.00;97446.30;1667597;84;21988;-86
2022/04/23 08:25:48;;;;;;;;;;;;;;;9.81;100.00;97445.19;1670687;84;26825;-87
2022/04/23 08:30:59;;;;;;;;;;;;;;;9.99;100.00;97443.64;1668675;86;20213;-86
2022/04/23 08:33:57;;;;;;;;;;;;;;;10.08;100.00;97441.58;1669091;84;24767;-87
2022/04/23 08:35:53;;;;;;;;;;;;;;;10.19;100.00;97442.85;1664991;84;22701;-87
2022/04/23 08:38:21;;;;;;;;;;;;;;;10.23;100.00;97448.64;1669673;86;26223;-86
2022/04/23 08:40:47;;;;;;;;;;;;;;;10.27;100.00;97457.88;1668851;86;24539;-87
2022/04/23 08:43:13;;;;;;;;;;;;;;;10.38;100.00;97446.86;1668665;86;20479;-86
2022/04/23 08:45:39;;;;;;;;;;;;;;;10.42;100.00;97446.11;1667463;86;24709;-87
2022/04/23 08:48:10;;;;;;;;;;;;;;;10.36;100.00;97434.89;1668157;86;22172;-87
2022/04/23 08:50:37;;;;;;;;;;;;;;;10.38;100.00;97445.56;1667914;84;26053;-87
2022/04/23 08:53:05;;;;;;;;;;;;;;;10.47;100.00;97447.89;1668072;84;24630;-86
2022/04/23 08:55:31;;;;;;;;;;;;;;;10.54;100.00;97448.17;1666717;86;20209;-87
2022/04/23 08:57:57;;;;;;;;;;;;;;;10.64;100.00;97452.48;1667556;84;20788;-86
2022/04/23 09:00:23;;;;;;;;;;;;;;;10.76;100.00;97430.98;1667636;84;20767;-86
2022/04/23 09:02:49;;;;;;;;;;;;;;;10.99;100.00;97438.98;1664728;86;26032;-86
2022/04/23 09:05:15;;;;;;;;;;;;;;;11.19;100.00;97434.59;1665957;84;24418;-87
2022/04/23 09:07:42;;;;;;;;;;;;;;;11.18;100.00;97435.08;1666442;84;20428;-87
2022/04/23 09:10:09;;;;;;;;;;;;;;;11.18;100.00;97434.28;1665042;84;24901;-86
2022/04/23 09:12:42;;;;;;;;;;;;;;;11.23;100.00;97431.59;1667002;86;22004;-87
2022/04/23 09:23:43;;;;;;;;;;;;;;;11.38;100.00;97424.64;1666499;86;25711;-87
2022/04/23 09:26:22;;;;;;;;;;;;;;;11.38;100.00;97424.16;1668007;85;22753;-88
2022/04/23 09:28:50;;;;;;;;;;;;;;;11.26;100.00;97425.25;1651799;86;26019;-87
2022/04/23 09:31:17;;;;;;;;;;;;;;;11.18;100.00;97429.84;1664917;85;24433;-87
2022/04/23 09:33:45;;;;;;;;;;;;;;;11.18;100.00;97435.08;1669093;84;20258;-87
2022/04/23 09:36:12;;;;;;;;;;;;;;;11.27;100.00;97434.28;1664784;84;24878;-87
2022/04/23 09:38:41;;;;;;;;;;;;;;;11.36;100.00;97433.11;1664874;85;22008;-87
2022/04/23 09:41:16;;;;;;;;;;;;;;;11.41;100.00;97424.36;1664629;86;26287;-88
2022/04/23 09:43:43;;;;;;;;;;;;;;;11.46;100.00;97425.60;1666234;86;24551;-88
2022/04/23 09:46:09;;;;;;;;;;;;;;;11.52;100.00;97421.61;1666091;86;20473;-87
2022/04/23 09:48:38;;;;;;;;;;;;;;;11.61;100.00;97420.32;1667188;86;24757;-87
2022/04/23 09:51:04;;;;;;;;;;;;;;;11.63;100.00;97421.47;1667944;84;21984;-87
2022/04/23 09:53:34;;;;;;;;;;;;;;;11.68;100.00;97421.88;1667594;86;26147;-88
2022/04/23 09:56:01;;;;;;;;;;;;;;;11.74;100.00;97423.98;1666697;86;24571;-88
2022/04/23 09:58:30;;;;;;;;;;;;;;;11.77;100.00;97425.03;1665932;86;20281;-87
2022/04/23 10:00:58;;;;;;;;;;;;;;;11.84;100.00;97426.62;1666304;86;24865;-87
2022/04/23 10:03:29;;;;;;;;;;;;;;;11.82;100.00;97421.50;1667418;84;22101;-87
2022/04/23 10:05:55;;;;;;;;;;;;;;;11.84;100.00;97425.30;1663811;85;25999;-87
2022/04/23 10:08:31;;;;;;;;;;;;;;;11.88;100.00;97424.05;1664458;86;24477;-86
2022/04/23 10:11:15;;;;;;;;;;;;;;;11.94;100.00;97429.57;1666760;84;20296;-87
2022/04/23 10:13:44;;;;;;;;;;;;;;;11.96;100.00;97430.72;1665706;84;24777;-87
2022/04/23 10:16:10;;;;;;;;;;;;;;;12.02;99.71;97431.47;1667732;84;22056;-87
2022/04/23 10:18:39;;;;;;;;;;;;;;;12.03;99.06;97433.96;1665609;86;26074;-88
2022/04/23 10:21:10;;;;;;;;;;;;;;;12.02;98.57;97424.44;1665581;86;24672;-87
2022/04/23 10:23:54;;;;;;;;;;;;;;;12.20;98.54;97431.58;1667564;85;20221;-88
2022/04/23 10:26:38;;;;;;;;;;;;;;;12.26;98.02;97436.27;1667794;85;24753;-87
2022/04/23 10:29:14;;;;;;;;;;;;;;;12.32;97.33;97436.53;1666816;84;22084;-87
2022/04/23 10:31:36;;;;;;;;;;;;;;;12.30;96.44;97436.31;1664926;86;26126;-87
2022/04/23 10:34:02;;;;;;;;;;;;;;;12.34;95.75;97437.68;1667906;85;24436;-87
2022/04/23 10:36:28;;;;;;;;;;;;;;;12.36;95.05;97441.00;1666392;84;20238;-87
2022/04/23 10:39:12;;;;;;;;;;;;;;;12.39;94.53;97434.97;1666241;85;20245;-87
2022/04/23 10:41:38;;;;;;;;;;;;;;;12.43;94.07;97434.22;1666344;86;22070;-87
2022/04/23 10:44:05;;;;;;;;;;;;;;;12.53;93.66;97434.53;1667601;84;26080;-87
2022/04/23 10:46:43;;;;;;;;;;;;;;;12.59;93.35;97431.81;1667266;86;24377;-87
2022/04/23 10:49:13;;;;;;;;;;;;;;;12.67;93.30;97432.39;1644103;83;20607;-88
2022/04/23 10:51:46;;;;;;;;;;;;;;;12.73;92.94;97440.52;1639884;86;24761;-87
2022/04/23 10:54:14;;;;;;;;;;;;;;;12.70;92.23;97434.74;1638405;86;22105;-88
2022/04/23 10:56:40;;;;;;;;;;;;;;;12.61;91.36;97431.17;1639074;86;26054;-87
2022/04/23 10:59:08;;;;;;;;;;;;;;;12.75;91.37;97429.40;1639031;86;24481;-88
2022/04/23 11:01:36;;;;;;;;;;;;;;;12.90;91.37;97434.50;1638210;85;20253;-87
2022/04/23 11:04:07;;;;;;;;;;;;;;;12.98;91.15;97422.77;1641561;86;25100;-87
2022/04/23 11:12:22;;;;;;;;;;;;;;;13.37;90.25;97427.33;1638167;86;24413;-87
2022/04/23 11:14:51;;;;;;;;;;;;;;;13.44;90.03;97430.19;1640777;86;20512;-86
2022/04/23 11:17:22;;;;;;;;;;;;;;;13.52;89.79;97432.91;1637541;87;24819;-87
2022/04/23 11:19:52;;;;;;;;;;;;;;;13.50;89.01;97429.59;1637979;86;22779;-88
2022/04/23 11:22:22;;;;;;;;;;;;;;;13.60;88.61;97425.09;1635414;86;26229;-88
2022/04/23 11:24:50;;;;;;;;;;;;;;;13.74;88.58;97418.48;1637435;86;24507;-88
2022/04/23 11:27:26;;;;;;;;;;;;;;;13.86;88.51;97422.99;1637527;86;20226;-88
2022/04/23 11:29:52;;;;;;;;;;;;;;;13.92;88.18;97422.39;1637711;87;24902;-88
2022/04/23 11:32:28;;;;;;;;;;;;;;;13.82;87.39;97418.53;1637706;87;22060;-87
2022/04/23 11:34:57;;;;;;;;;;;;;;;13.65;86.13;97420.69;1636883;87;26002;-88
2022/04/23 11:37:34;;;;;;;;;;;;;;;13.67;85.60;97415.63;1636212;87;24681;-88
2022/04/23 11:40:10;;;;;;;;;;;;;;;13.83;85.47;97415.77;1636575;87;20222;-86
2022/04/23 11:42:43;;;;;;;;;;;;;;;13.88;85.04;97410.53;1639650;86;24892;-88
2022/04/23 11:45:11;;;;;;;;;;;;;;;13.83;84.05;97409.67;1638934;86;21735;-87
2022/04/23 11:47:43;;;;;;;;;;;;;;;13.91;83.83;97400.52;1637554;86;26646;-88
2022/04/23 11:50:24;;;;;;;;;;;;;;;13.85;83.04;97406.91;1612172;87;24555;-88
2022/04/23 11:53:03;;;;;;;;;;;;;;;13.83;82.48;97402.61;1608580;88;20247;-88
2022/04/23 11:55:30;;;;;;;;;;;;;;;13.88;81.89;97396.06;1637287;87;24946;-88
2022/04/23 11:58:04;;;;;;;;;;;;;;;13.94;81.31;97394.14;1632849;86;22834;-88
2022/04/23 12:00:33;;;;;;;;;;;;;;;14.01;81.08;97395.19;1631278;87;25979;-88
2022/04/23 12:03:00;;;;;;;;;;;;;;;13.99;80.10;97388.75;1633609;87;24390;-88
2022/04/23 12:05:31;;;;;;;;;;;;;;;13.99;79.34;97389.23;1632272;87;20431;-89
2022/04/23 12:07:58;;;;;;;;;;;;;;;13.99;78.74;97387.44;1632388;86;24780;-88
2022/04/23 12:10:25;;;;;;;;;;;;;;;13.99;78.40;97384.81;1630780;87;22611;-89
2022/04/23 12:12:52;;;;;;;;;;;;;;;13.95;77.65;97387.91;1632191;87;25982;-89
2022/04/23 12:15:20;;;;;;;;;;;;;;;13.97;77.33;97386.75;1632662;87;24571;-89
2022/04/23 12:17:47;;;;;;;;;;;;;;;13.99;76.94;97378.72;1632269;87;20220;-88
2022/04/23 12:20:15;;;;;;;;;;;;;;;14.15;76.98;97372.25;1632538;87;25648;-89
2022/04/23 12:22:58;;;;;;;;;;;;;;;14.24;76.70;97367.36;1632655;87;22641;-88
2022/04/23 12:25:25;;;;;;;;;;;;;;;14.37;76.69;97369.61;1631867;86;26893;-88
2022/04/23 12:27:52;;;;;;;;;;;;;;;14.51;76.77;97366.41;1631826;86;25338;-88
2022/04/23 12:41:36;;;;;;;;;;;;;;;14.29;72.00;97359.02;1631904;87;24093;-87
2022/04/23 12:44:17;;;;;;;;;;;;;;;14.32;71.67;97346.36;1644395;87;20347;-88
2022/04/23 12:47:01;;;;;;;;;;;;;;;14.46;71.78;97346.28;1643889;87;24802;-88
2022/04/23 12:49:47;;;;;;;;;;;;;;;14.65;71.95;97344.23;1654612;85;22067;-86
2022/04/23 12:52:20;;;;;;;;;;;;;;;14.90;72.12;97339.86;1665571;84;26645;-88
2022/04/23 12:55:04;;;;;;;;;;;;;;;14.89;71.49;97351.38;1665504;86;24535;-87
2022/04/23 12:57:31;;;;;;;;;;;;;;;14.74;70.39;97354.30;1664906;85;20234;-88
2022/04/23 12:59:56;;;;;;;;;;;;;;;14.45;68.63;97350.75;1665513;86;24585;-88
2022/04/23 13:02:23;;;;;;;;;;;;;;;14.40;67.77;97346.94;1665250;86;22094;-88
2022/04/23 13:04:54;;;;;;;;;;;;;;;14.50;67.63;97346.32;1666796;86;20985;-88
2022/04/23 13:10:01;;;;;;;;;;;;;;;14.69;67.46;97332.05;1663950;86;20496;-88
2022/04/23 13:12:27;;;;;;;;;;;;;;;14.72;67.15;97330.44;1665584;86;24811;-88
2022/04/23 13:14:53;;;;;;;;;;;;;;;14.90;67.30;97325.86;1668715;84;20314;-88
2022/04/23 13:17:20;;;;;;;;;;;;;;;15.11;67.56;97324.12;1670521;84;21103;-88
2022/04/23 13:19:47;;;;;;;;;;;;;;;15.26;67.59;97327.27;1668600;84;24497;-88
2022/04/23 13:22:15;;;;;;;;;;;;;;;15.35;67.25;97322.31;1666648;84;20495;-88
2022/04/23 13:24:41;;;;;;;;;;;;;;;15.40;66.85;97325.28;1667786;84;24785;-89
2022/04/23 13:27:07;;;;;;;;;;;;;;;15.43;66.27;97325.46;1664503;85;20301;-88